createdAt,value
2023-03-26T00:01:24.863Z,1.48
2023-03-26T00:03:57.946Z,1.73
2023-03-26T00:06:31.408Z,1.40
2023-03-26T00:08:58.513Z,1.30
2023-03-26T00:11:27.774Z,1.30
2023-03-26T00:13:59.364Z,1.15
2023-03-26T00:16:28.942Z,1.23
2023-03-26T00:18:55.984Z,1.02
2023-03-26T00:21:29.475Z,0.93
2023-03-26T00:24:15.373Z,0.77
2023-03-26T00:26:44.174Z,0.70
2023-03-26T00:29:13.822Z,0.70
2023-03-26T00:31:41.093Z,0.70
2023-03-26T00:34:08.729Z,0.55
2023-03-26T00:36:36.032Z,0.90
2023-03-26T00:39:05.687Z,0.82
2023-03-26T00:41:34.223Z,0.80
2023-03-26T00:44:00.828Z,1.08
2023-03-26T00:46:29.802Z,0.85
2023-03-26T00:48:59.953Z,1.13
2023-03-26T00:51:29.322Z,1.00
2023-03-26T00:53:57.082Z,1.25
2023-03-26T00:56:25.630Z,1.10
2023-03-26T00:58:52.143Z,1.23
2023-03-26T01:01:29.551Z,1.20
2023-03-26T01:04:08.793Z,0.95
2023-03-26T01:06:41.250Z,1.15
2023-03-26T01:09:17.190Z,1.10
2023-03-26T01:11:46.467Z,1.40
2023-03-26T01:14:26.886Z,1.40
2023-03-26T01:16:56.228Z,1.23
2023-03-26T01:19:56.942Z,1.20
2023-03-26T01:22:28.457Z,1.00
2023-03-26T01:24:56.702Z,1.38
2023-03-26T01:27:53.908Z,1.15
2023-03-26T01:30:35.004Z,1.10
2023-03-26T01:33:16.485Z,1.08
2023-03-26T01:36:26.029Z,1.30
2023-03-26T01:39:18.926Z,0.88
2023-03-26T01:41:49.383Z,1.38
2023-03-26T01:44:15.785Z,1.15
2023-03-26T01:46:43.771Z,1.50
2023-03-26T01:49:13.517Z,1.35
2023-03-26T01:51:42.278Z,1.50
2023-03-26T01:54:21.240Z,1.23
2023-03-26T01:57:20.426Z,1.10
2023-03-26T02:00:41.236Z,1.38
2023-03-26T02:03:27.883Z,1.13
2023-03-26T02:06:03.017Z,1.00
2023-03-26T02:08:37.614Z,1.17
2023-03-26T02:11:14.411Z,1.10
2023-03-26T02:13:43.691Z,1.10
2023-03-26T02:16:16.827Z,1.25
2023-03-26T02:18:45.068Z,1.50
2023-03-26T02:21:20.606Z,1.10
2023-03-26T02:23:50.779Z,1.10
2023-03-26T02:26:20.235Z,1.30
2023-03-26T02:28:46.959Z,1.15
2023-03-26T02:31:13.824Z,1.25
2023-03-26T02:33:40.611Z,1.30
2023-03-26T02:36:12.628Z,1.55
2023-03-26T02:38:39.877Z,1.40
2023-03-26T02:41:06.379Z,1.20
2023-03-26T02:43:32.982Z,1.55
2023-03-26T02:45:59.812Z,1.30
2023-03-26T02:48:27.033Z,1.08
2023-03-26T02:51:02.245Z,1.10
2023-03-26T02:53:31.815Z,0.95
2023-03-26T02:55:59.359Z,0.88
2023-03-26T02:58:28.431Z,0.93
2023-03-26T03:00:55.267Z,1.05
2023-03-26T03:03:24.360Z,0.93
2023-03-26T03:05:55.084Z,1.10
2023-03-26T03:08:24.202Z,1.00
2023-03-26T03:11:02.558Z,0.90
2023-03-26T03:13:29.378Z,0.80
2023-03-26T03:15:56.434Z,0.82
2023-03-26T03:18:25.326Z,1.30
2023-03-26T03:20:52.172Z,0.90
2023-03-26T03:23:21.417Z,0.90
2023-03-26T03:25:50.651Z,1.30
2023-03-26T03:28:18.261Z,0.90
2023-03-26T03:30:45.868Z,1.50
2023-03-26T03:33:15.409Z,1.60
2023-03-26T03:35:42.698Z,1.30
2023-03-26T03:38:10.740Z,1.60
2023-03-26T03:40:37.454Z,1.92
2023-03-26T03:43:03.945Z,1.67
2023-03-26T03:45:30.425Z,1.40
2023-03-26T03:48:02.525Z,1.52
2023-03-26T03:50:29.095Z,1.50
2023-03-26T03:52:55.984Z,1.60
2023-03-26T03:55:33.863Z,1.42
2023-03-26T03:58:00.405Z,1.90
2023-03-26T04:00:27.124Z,1.67
2023-03-26T04:03:00.647Z,1.70
2023-03-26T04:05:27.187Z,2.00
2023-03-26T04:07:53.746Z,2.03
2023-03-26T04:10:22.124Z,1.23
2023-03-26T04:12:50.974Z,1.45
2023-03-26T04:15:17.472Z,1.38
2023-03-26T04:17:45.101Z,1.23
2023-03-26T04:20:15.715Z,1.13
2023-03-26T04:22:49.708Z,1.40
2023-03-26T04:25:16.404Z,1.65
2023-03-26T04:27:44.101Z,1.50
2023-03-26T04:30:15.698Z,1.73
2023-03-26T04:32:43.091Z,1.00
2023-03-26T04:35:14.312Z,1.10
2023-03-26T04:37:42.866Z,1.30
2023-03-26T04:40:15.230Z,1.55
2023-03-26T04:42:41.839Z,1.38
2023-03-26T04:45:13.473Z,1.67
2023-03-26T04:47:40.250Z,1.90
2023-03-26T04:50:08.581Z,1.83
2023-03-26T04:52:35.513Z,1.75
2023-03-26T04:55:02.256Z,1.73
2023-03-26T04:57:35.432Z,2.10
2023-03-26T05:00:16.746Z,2.03
2023-03-26T05:02:43.750Z,1.85
2023-03-26T05:05:12.550Z,2.03
2023-03-26T05:07:39.282Z,2.17
2023-03-26T05:10:06.755Z,1.67
2023-03-26T05:12:33.280Z,1.98
2023-03-26T05:15:01.594Z,1.80
2023-03-26T05:17:31.024Z,1.80
2023-03-26T05:19:57.804Z,2.30
2023-03-26T05:22:28.779Z,1.88
2023-03-26T05:24:56.328Z,1.92
2023-03-26T05:27:22.858Z,1.92
2023-03-26T05:29:51.218Z,2.10
2023-03-26T05:32:17.714Z,1.80
2023-03-26T05:34:46.705Z,2.13
2023-03-26T05:37:15.544Z,1.92
2023-03-26T05:39:43.850Z,1.70
2023-03-26T05:42:10.342Z,1.70
2023-03-26T05:44:37.130Z,1.50
2023-03-26T05:47:05.939Z,1.90
2023-03-26T05:49:32.451Z,1.70
2023-03-26T05:51:59.084Z,1.80
2023-03-26T05:54:25.629Z,1.80
2023-03-26T05:56:52.807Z,1.85
2023-03-26T05:59:29.599Z,1.92
2023-03-26T06:01:59.699Z,1.98
2023-03-26T06:04:28.677Z,2.55
2023-03-26T06:06:55.347Z,1.65
2023-03-26T06:09:21.851Z,2.00
2023-03-26T06:11:48.391Z,2.10
2023-03-26T06:14:21.276Z,2.47
2023-03-26T06:16:48.021Z,1.67
2023-03-26T06:19:14.579Z,1.90
2023-03-26T06:21:41.303Z,2.03
2023-03-26T06:24:07.870Z,1.90
2023-03-26T06:26:34.362Z,1.52
2023-03-26T06:29:05.448Z,1.83
2023-03-26T06:31:31.988Z,1.60
2023-03-26T06:33:58.465Z,1.48
2023-03-26T06:36:26.726Z,1.50
2023-03-26T06:38:53.518Z,1.50
2023-03-26T06:41:20.213Z,1.80
2023-03-26T06:43:46.757Z,1.60
2023-03-26T06:46:13.449Z,1.27
2023-03-26T06:48:42.072Z,1.63
2023-03-26T06:51:10.330Z,1.45
2023-03-26T06:53:38.543Z,1.60
2023-03-26T06:56:07.133Z,1.75
2023-03-26T06:58:37.480Z,1.65
2023-03-26T07:01:04.118Z,2.13
2023-03-26T07:03:30.712Z,1.85
2023-03-26T07:06:03.722Z,1.70
2023-03-26T07:08:31.675Z,1.73
2023-03-26T07:11:01.954Z,1.67
2023-03-26T07:13:28.558Z,1.70
2023-03-26T07:15:55.090Z,1.48
2023-03-26T07:18:21.661Z,1.50
2023-03-26T07:20:50.160Z,1.58
2023-03-26T07:23:20.460Z,1.55
2023-03-26T07:25:48.590Z,1.13
2023-03-26T07:28:35.528Z,1.50
2023-03-26T07:31:20.555Z,1.63
2023-03-26T07:34:02.426Z,1.38
2023-03-26T07:36:36.076Z,1.30
2023-03-26T07:39:09.356Z,1.20
2023-03-26T07:41:54.767Z,1.30
2023-03-26T07:44:53.144Z,1.20
2023-03-26T07:47:32.806Z,1.00
2023-03-26T07:50:01.508Z,1.20
2023-03-26T07:52:28.320Z,1.00
2023-03-26T07:54:55.615Z,0.93
2023-03-26T07:57:45.632Z,1.10
2023-03-26T08:00:22.765Z,1.60
2023-03-26T08:03:01.971Z,1.30
2023-03-26T08:05:32.958Z,1.30
2023-03-26T08:08:15.508Z,1.40
2023-03-26T08:11:02.002Z,1.15
2023-03-26T08:14:07.781Z,1.30
2023-03-26T08:16:54.727Z,1.30
2023-03-26T08:19:33.389Z,1.05
2023-03-26T08:22:11.241Z,1.17
2023-03-26T08:25:09.919Z,1.73
2023-03-26T08:27:43.366Z,2.50
2023-03-26T08:30:25.463Z,2.00
2023-03-26T08:33:00.392Z,1.40
2023-03-26T08:35:30.453Z,1.83
2023-03-26T08:37:57.006Z,1.60
2023-03-26T08:41:06.322Z,1.50
2023-03-26T08:43:55.589Z,1.73
2023-03-26T08:47:02.616Z,2.00
2023-03-26T08:49:29.774Z,1.67
2023-03-26T08:52:55.457Z,1.40
2023-03-26T08:55:43.720Z,1.80
2023-03-26T08:58:46.750Z,1.60
2023-03-26T09:01:37.354Z,1.33
2023-03-26T09:04:26.592Z,1.38
2023-03-26T09:06:59.681Z,1.55
2023-03-26T09:09:55.594Z,1.30
2023-03-26T09:12:23.745Z,1.60
2023-03-26T09:15:42.142Z,1.10
2023-03-26T09:18:41.921Z,1.30
2023-03-26T09:21:22.615Z,0.98
2023-03-26T09:24:25.495Z,1.38
2023-03-26T09:27:14.135Z,0.98
2023-03-26T09:30:02.166Z,1.00
2023-03-26T09:32:44.194Z,1.35
2023-03-26T09:35:42.369Z,1.10
2023-03-26T09:38:40.632Z,1.15
2023-03-26T09:41:17.973Z,1.02
2023-03-26T09:44:05.588Z,1.20
2023-03-26T09:46:53.780Z,1.20
2023-03-26T09:49:30.814Z,1.00
2023-03-26T09:52:08.065Z,1.10
2023-03-26T09:54:57.730Z,0.77
2023-03-26T09:57:43.098Z,0.90
2023-03-26T10:00:20.764Z,0.97
2023-03-26T10:03:22.540Z,1.00
2023-03-26T10:06:00.812Z,1.00
2023-03-26T10:08:34.161Z,1.15
2023-03-26T10:11:20.457Z,0.80
2023-03-26T10:14:00.292Z,0.82
2023-03-26T10:16:41.219Z,0.70
2023-03-26T10:19:20.163Z,1.10
2023-03-26T10:22:25.346Z,1.13
2023-03-26T10:24:58.462Z,1.25
2023-03-26T10:27:48.944Z,0.80
2023-03-26T10:30:25.517Z,0.90
2023-03-26T10:33:02.275Z,0.85
2023-03-26T10:35:52.908Z,1.00
2023-03-26T10:38:54.852Z,0.88
2023-03-26T10:41:54.631Z,0.70
2023-03-26T10:44:51.258Z,0.77
2023-03-26T10:50:40.842Z,0.80
2023-03-26T10:53:19.540Z,0.80
2023-03-26T10:55:54.824Z,1.20
2023-03-26T10:58:26.421Z,0.80
2023-03-26T11:01:03.467Z,0.93
2023-03-26T11:03:45.353Z,0.93
2023-03-26T11:06:30.160Z,1.10
2023-03-26T11:09:16.967Z,1.10
2023-03-26T11:15:15.080Z,0.70
2023-03-26T11:17:56.397Z,0.65
2023-03-26T11:20:38.671Z,0.73
2023-03-26T11:23:32.228Z,1.20
2023-03-26T11:26:15.191Z,0.85
2023-03-26T11:29:31.098Z,0.77
2023-03-26T11:32:33.549Z,0.90
2023-03-26T11:35:00.140Z,0.70
2023-03-26T11:37:43.428Z,0.47
2023-03-26T11:40:16.580Z,0.70
2023-03-26T11:42:43.986Z,0.70
2023-03-26T11:45:17.904Z,0.70
2023-03-26T11:47:51.888Z,0.57
2023-03-26T11:50:28.859Z,0.90
2023-03-26T11:53:03.190Z,0.68
2023-03-26T11:55:32.297Z,0.90
2023-03-26T11:58:00.189Z,0.70
2023-03-26T12:00:28.588Z,0.85
2023-03-26T12:03:01.447Z,0.85
2023-03-26T12:05:36.608Z,0.82
2023-03-26T12:11:14.541Z,1.20
2023-03-26T12:13:44.546Z,0.90
2023-03-26T12:16:17.554Z,0.60
2023-03-26T12:18:46.585Z,0.60
2023-03-26T12:21:26.216Z,0.70
2023-03-26T12:24:05.329Z,0.50
2023-03-26T12:26:49.281Z,0.90
2023-03-26T12:29:19.174Z,0.73
2023-03-26T12:31:56.033Z,0.70
2023-03-26T12:34:30.899Z,0.68
2023-03-26T12:37:02.773Z,1.15
2023-03-26T12:40:10.313Z,1.10
2023-03-26T12:44:45.046Z,0.80
2023-03-26T12:45:39.682Z,0.70
2023-03-26T12:48:07.826Z,0.60
2023-03-26T12:50:42.755Z,0.50
2023-03-26T12:53:40.234Z,0.60
2023-03-26T12:56:36.471Z,0.90
2023-03-26T12:59:41.561Z,0.60
2023-03-26T13:02:36.343Z,0.47
2023-03-26T13:05:28.804Z,0.50
2023-03-26T13:08:32.761Z,0.65
2023-03-26T13:11:20.413Z,0.75
2023-03-26T13:14:33.487Z,0.95
2023-03-26T13:17:37.977Z,0.85
2023-03-26T13:20:33.066Z,0.50
2023-03-26T13:23:17.288Z,0.65
2023-03-26T13:25:53.200Z,0.70
2023-03-26T13:28:37.796Z,0.50
2023-03-26T13:31:21.945Z,0.80
2023-03-26T13:33:57.436Z,1.73
2023-03-26T13:36:52.177Z,0.70
2023-03-26T13:39:42.763Z,0.70
2023-03-26T13:42:15.487Z,0.75
2023-03-26T13:45:06.170Z,0.70
2023-03-26T13:47:41.540Z,0.82
2023-03-26T13:50:15.567Z,1.05
2023-03-26T13:53:06.467Z,1.05
2023-03-26T13:55:59.856Z,0.90
2023-03-26T13:58:45.184Z,0.85
2023-03-26T14:01:21.419Z,0.70
2023-03-26T14:04:09.077Z,0.65
2023-03-26T14:06:49.362Z,0.85
2023-03-26T14:09:23.019Z,0.30
2023-03-26T14:12:20.986Z,0.57
2023-03-26T14:15:13.873Z,0.57
2023-03-26T14:18:24.372Z,0.70
2023-03-26T14:20:56.369Z,0.52
2023-03-26T14:23:27.660Z,0.40
2023-03-26T14:26:19.254Z,0.60
2023-03-26T14:29:07.986Z,0.47
2023-03-26T14:31:54.166Z,0.40
2023-03-26T14:37:44.588Z,0.30
2023-03-26T14:40:18.686Z,0.30
2023-03-26T14:43:09.576Z,0.43
2023-03-26T14:45:56.494Z,0.20
2023-03-26T14:49:00.037Z,0.30
2023-03-26T14:51:42.608Z,0.25
2023-03-26T14:54:12.965Z,0.60
2023-03-26T14:56:53.699Z,0.15
2023-03-26T14:59:44.339Z,0.30
2023-03-26T15:02:46.424Z,0.30
2023-03-26T15:05:37.453Z,0.50
2023-03-26T15:08:21.296Z,0.40
2023-03-26T15:11:28.621Z,0.50
2023-03-26T15:14:37.442Z,0.40
2023-03-26T15:17:34.473Z,0.50
2023-03-26T15:20:50.431Z,0.52
2023-03-26T15:23:29.150Z,0.40
2023-03-26T15:26:27.800Z,0.20
2023-03-26T15:29:35.581Z,0.40
2023-03-26T15:32:26.262Z,0.30
2023-03-26T15:35:09.709Z,0.30
2023-03-26T15:38:16.320Z,0.20
2023-03-26T15:41:01.899Z,0.30
2023-03-26T15:44:22.972Z,0.40
2023-03-26T15:47:01.798Z,0.22
2023-03-26T15:49:43.761Z,0.30
2023-03-26T15:52:24.031Z,0.60
2023-03-26T15:55:14.582Z,0.30
2023-03-26T15:57:47.548Z,0.30
2023-03-26T16:00:24.435Z,0.20
2023-03-26T16:03:19.557Z,0.20
2023-03-26T16:06:16.331Z,0.22
2023-03-26T16:09:10.502Z,0.30
2023-03-26T16:11:49.633Z,0.28
2023-03-26T16:14:24.234Z,0.20
2023-03-26T16:16:58.721Z,0.38
2023-03-26T16:19:50.464Z,0.25
2023-03-26T16:22:42.547Z,0.30
2023-03-26T16:25:29.130Z,0.50
2023-03-26T16:28:19.649Z,0.40
2023-03-26T16:31:10.644Z,0.40
2023-03-26T16:34:03.478Z,0.77
2023-03-26T16:36:35.712Z,0.30
2023-03-26T16:39:11.622Z,0.40
2023-03-26T16:41:50.268Z,0.20
2023-03-26T16:44:44.001Z,0.40
2023-03-26T16:47:38.707Z,0.50
2023-03-26T16:50:45.621Z,0.20
2023-03-26T16:53:29.539Z,0.38
2023-03-26T16:56:09.567Z,0.30
2023-03-26T16:58:59.224Z,0.25
2023-03-26T17:01:34.230Z,0.30
2023-03-26T17:04:17.284Z,0.35
2023-03-26T17:06:45.884Z,0.47
2023-03-26T17:09:34.430Z,0.50
2023-03-26T17:12:14.904Z,0.30
2023-03-26T17:15:11.027Z,0.40
2023-03-26T17:17:55.701Z,0.20
2023-03-26T17:20:25.337Z,0.25
2023-03-26T17:23:30.769Z,0.30
2023-03-26T17:26:04.041Z,0.43
2023-03-26T17:28:47.838Z,1.05
2023-03-26T17:31:31.589Z,1.90
2023-03-26T17:34:38.352Z,1.13
2023-03-26T17:37:27.951Z,0.90
2023-03-26T17:40:00.466Z,0.80
2023-03-26T17:42:37.939Z,0.68
2023-03-26T17:45:21.873Z,0.77
2023-03-26T17:47:58.778Z,0.90
2023-03-26T17:50:52.665Z,0.80
2023-03-26T17:53:26.323Z,0.95
2023-03-26T17:55:56.056Z,0.73
2023-03-26T17:58:28.181Z,0.70
2023-03-26T18:01:14.495Z,0.82
2023-03-26T18:03:49.665Z,1.30
2023-03-26T18:06:59.336Z,1.63
2023-03-26T18:09:38.004Z,1.42
2023-03-26T18:12:23.046Z,1.17
2023-03-26T18:15:12.918Z,1.10
2023-03-26T18:17:47.721Z,1.10
2023-03-26T18:20:26.600Z,1.20
2023-03-26T18:22:53.295Z,0.98
2023-03-26T18:25:29.125Z,0.80
2023-03-26T18:27:56.666Z,1.30
2023-03-26T18:30:25.958Z,1.02
2023-03-26T18:33:06.808Z,0.98
2023-03-26T18:35:46.528Z,1.20
2023-03-26T18:38:35.798Z,1.30
2023-03-26T18:41:08.086Z,0.65
2023-03-26T18:43:43.933Z,0.90
2023-03-26T18:46:14.523Z,0.95
2023-03-26T18:48:41.659Z,1.08
2023-03-26T18:51:08.868Z,1.10
2023-03-26T18:53:50.891Z,1.20
2023-03-26T18:56:49.452Z,1.10
2023-03-26T18:59:33.994Z,1.08
2023-03-26T19:02:05.032Z,1.00
2023-03-26T19:04:34.997Z,1.58
2023-03-26T19:07:02.904Z,1.20
2023-03-26T19:09:32.393Z,1.40
2023-03-26T19:12:07.302Z,2.53
2023-03-26T19:14:39.215Z,3.58
2023-03-26T19:17:07.121Z,2.97
2023-03-26T19:19:38.334Z,1.95
2023-03-26T19:22:07.220Z,1.58
2023-03-26T19:24:36.219Z,1.23
2023-03-26T19:27:03.725Z,1.30
2023-03-26T19:29:35.554Z,1.10
2023-03-26T19:32:04.980Z,1.40
2023-03-26T19:34:39.052Z,1.00
2023-03-26T19:37:26.817Z,1.30
2023-03-26T19:40:01.286Z,1.48
2023-03-26T19:42:43.221Z,1.17
2023-03-26T19:45:19.248Z,1.00
2023-03-26T19:48:03.626Z,1.30
2023-03-26T19:50:43.016Z,1.08
2023-03-26T19:53:25.593Z,0.98
2023-03-26T19:56:25.563Z,0.95
2023-03-26T19:58:52.616Z,0.70
2023-03-26T20:01:23.755Z,0.70
2023-03-26T20:03:54.569Z,0.68
2023-03-26T20:06:33.918Z,0.80
2023-03-26T20:09:13.145Z,0.77
2023-03-26T20:11:40.838Z,0.60
2023-03-26T20:14:27.479Z,0.52
2023-03-26T20:16:54.511Z,0.80
2023-03-26T20:19:21.081Z,0.70
2023-03-26T20:21:47.694Z,0.75
2023-03-26T20:24:16.177Z,0.40
2023-03-26T20:26:44.033Z,0.60
2023-03-26T20:29:11.778Z,0.55
2023-03-26T20:31:41.550Z,0.40
2023-03-26T20:34:24.486Z,0.60
2023-03-26T20:36:55.319Z,0.50
2023-03-26T20:39:25.401Z,0.50
2023-03-26T20:41:53.959Z,0.47
2023-03-26T20:44:21.237Z,0.38
2023-03-26T20:46:49.335Z,0.50
2023-03-26T20:49:25.213Z,0.60
2023-03-26T20:51:53.949Z,0.32
2023-03-26T20:54:26.353Z,0.40
2023-03-26T20:56:58.378Z,0.40
2023-03-26T20:59:27.444Z,0.20
2023-03-26T21:01:57.488Z,0.30
2023-03-26T21:04:26.114Z,0.40
2023-03-26T21:06:55.670Z,0.30
2023-03-26T21:09:34.014Z,0.30
2023-03-26T21:12:05.808Z,0.30
2023-03-26T21:14:41.925Z,0.40
2023-03-26T21:17:21.085Z,0.40
2023-03-26T21:19:50.605Z,0.22
2023-03-26T21:22:29.928Z,0.20
2023-03-26T21:25:05.610Z,0.40
2023-03-26T21:30:18.434Z,0.38
2023-03-26T21:32:45.675Z,0.50
2023-03-26T21:35:13.703Z,0.30
2023-03-26T21:37:44.756Z,0.57
2023-03-26T21:40:16.981Z,0.80
2023-03-26T21:42:52.203Z,0.52
2023-03-26T21:45:20.028Z,0.45
2023-03-26T21:47:49.119Z,0.95
2023-03-26T21:50:20.665Z,0.80
2023-03-26T21:52:51.003Z,0.60
2023-03-26T21:55:22.053Z,0.70
2023-03-26T21:57:56.276Z,0.93
2023-03-26T22:00:30.732Z,0.60
2023-03-26T22:03:32.802Z,0.45
2023-03-26T22:06:31.221Z,0.40
2023-03-26T22:08:59.657Z,0.40
2023-03-26T22:11:26.253Z,0.43
2023-03-26T22:13:53.267Z,0.40
2023-03-26T22:16:20.034Z,0.47
2023-03-26T22:18:46.539Z,0.47
2023-03-26T22:21:14.155Z,0.50
2023-03-26T22:23:40.871Z,0.38
2023-03-26T22:26:07.375Z,0.40
2023-03-26T22:28:36.546Z,0.25
2023-03-26T22:31:10.268Z,0.35
2023-03-26T22:33:38.265Z,0.43
2023-03-26T22:36:05.092Z,0.17
2023-03-26T22:38:56.602Z,0.30
2023-03-26T22:41:23.625Z,0.47
2023-03-26T22:43:53.604Z,0.40
2023-03-26T22:46:21.437Z,0.40
2023-03-26T22:48:51.522Z,0.40
2023-03-26T22:51:18.826Z,0.43
2023-03-26T22:53:47.250Z,0.30
2023-03-26T22:56:15.364Z,0.47
2023-03-26T22:58:42.361Z,0.20
2023-03-26T23:01:13.133Z,0.30
2023-03-26T23:03:39.633Z,0.40
2023-03-26T23:06:08.605Z,0.30
2023-03-26T23:08:39.630Z,0.30
2023-03-26T23:11:20.416Z,0.40
2023-03-26T23:13:51.021Z,0.30
2023-03-26T23:16:17.796Z,0.30
2023-03-26T23:18:45.233Z,0.50
2023-03-26T23:21:20.215Z,0.40
2023-03-26T23:23:48.671Z,0.30
2023-03-26T23:26:16.326Z,0.35
2023-03-26T23:28:43.488Z,0.52
2023-03-26T23:31:12.327Z,0.28
2023-03-26T23:33:48.317Z,0.40
2023-03-26T23:38:46.761Z,0.45
2023-03-26T23:41:17.372Z,0.40
2023-03-26T23:43:54.536Z,0.60
2023-03-26T23:46:31.022Z,0.57
2023-03-26T23:49:00.204Z,0.30
2023-03-26T23:51:27.004Z,0.38
2023-03-26T23:53:53.941Z,0.65
2023-03-26T23:56:21.086Z,0.43
2023-03-26T23:58:49.010Z,0.50
